Aeroporto :
LOGIN :

Iscrizione | Disclaimer

   EN    FR    IT 

 










Sommario :    VFR   VFR Marginale   IFR   IFR Intensivo   IFR Molto Intensivo
Visibilità : 
Base nubi : 
>= 8 km
>= 3000ft
5 / 8 km
1000 / 3000 ft
1500m / 5 km
500 / 1000 ft
800 / 1500m
200 / 500 ft
< 800m
< 200 ft
Simboli :   Temporali  Nebbia  Neve Forte  Precipitazioni Forti  Vento > 20 kt
SIGMETs :   Varie  Temporali  Ghiacco  Turbolenza  Onda orograficha  Ceneri Vulcaniche






- Altitudine del aeroporto : 2356 ft


LZTT - Poprad Tatry

ULTIMO METAR :
  • 190830Z 30004KT 9999 BKN020 M04/M05 Q1025 NOSIG

METARs OBSOLETI :
  • 190800Z VRB01KT 9999 BKN022 M04/M06 Q1024 NOSIG
  • 190730Z VRB01KT 9999 BKN023 M04/M06 Q1024 NOSIG
  • 190700Z VRB02KT 9999 BKN022 M04/M06 Q1024 NOSIG
  • 190630Z VRB02KT 9999 BKN021 M05/M07 Q1023 NOSIG
  • 190600Z 26005KT 250V330 9999 BKN021 M05/M07 Q1023 NOSIG

TAF TAF LZTT
Valido dal 19 a 06 ore il 20 a 06 ore UTC


190500Z 1906/2006 28005KT 9999 SCT020 BKN060
TEMPO 1906/1909 BKN020
TEMPO 1909/1920 2500 -SN BKN018
BECMG 1911/1913 09010KT
BECMG 1920/1922 VRB02KT SCT025
PROB30
TEMPO 2000/2006 2500 BCFG SCT002



MetMap, La meteo Aeronautica in un colpo d'occhio ! - Copyright ORBIFLY Dicembre 2007 - Disclaimer

ORBIFLY MET'MAP TEAM :

Programmazione e sviluppo : Alexandra Zaïnal
Concezione : Baudouin d'Aumeries
Aiuto per la programmazione : Marc-Olivier Méhu
Supporto tecnico e logistico : Manuel Goepfert
Aiuto per la traduzione : Arnaldo La Scala

Contatto : metmap@orbifly.com




FONTI E CREDITI :

   NOAA